New Raymer, Colorado
Current Conditions -  °F | °C
As of 7:15 PM on Thursday 18 Dec 2014 (Local Time) from KFMM Reporting Station
Clear Clear  
Wind Chill: 13°   Ceiling: Unl
Heat Index: 23°   Visibility: 10mi
Dew Point: 17°   Wind: 8mph
Humidity: 80%   Direction: 20°NNE
Pressure: 30.09"   Gusts: NA
Location:  40.61°N, 103.84°W
Report Text: KFMM 190215Z AUTO 02007KT 10SM CLR M05/M08 A3009 RMK AO2 T10521081
Loading
Personal Weather Stations






























Interactive Weather Map New forecast layout! Learn more

10-Day Weather Forecast

Advertisements
Track Severe Weather on mobile